METAR Data
IDs: Format: Raw Decoded Include TAF

Data at: 1325 UTC 26 Feb 2021

KSEA 261317Z 23006KT 10SM SCT014 BKN041 BKN080 04/03 A2987 RMK AO2 RAE1256 P0000 T00440028